LTBS Airport Information

Runway Information
Runway 01 Length 9842 ft width 148 ft
Elevation 10 ft Threshold 0 ft Heading 15
Runway 19 Length 9842 ft Width 148 ft
Elevation 20 ft Threshold 0 ft Heading 195
Airport Frequencies
Type APP Name APP Frequency 119.225 MHZ
Type ATIS Name ATIS Frequency 127.35 MHZ
Type GND Name GND Frequency 121.9 MHZ
Type TWR Name TWR Frequency 118.5 MHZ
Airport Navaids
Type TACAN Name Dalaman Frequency 115300 KHZ
Type VOR-DME Name Dalaman Frequency 114700 KHZ
Type NDB Name Dalaman Frequency 346 KHZ
Airport Weather Information & NOTAM
ADDS - METARS form results

(1816 UTC 18 March 2019)
Data provider http://aviationweather.gov/metar/data/
 
METAR text: LTBS 181750Z VRB01KT CAVOK 14/12 Q1019 NOSIG RMK RWY19 11001KT
Conditions at: LTBS (DALAMAN (COMMUNE, TR) observed 1750 UTC 18 March 2019
Temperature: 14.0°C (57°F)
Dewpoint: 12.0°C (54°F) [RH = 88%]
Pressure (altimeter): 30.09 inches Hg (1019.0 mb)
Winds: variable direction winds at 1 MPH (1 knots; 0.5 m/s)
Visibility: 6 or more miles (10+ km)
Ceiling: ceiling and visibility are OK
Clouds: unknown
Weather: no significant weather observed at this time

METAR text: LTBS 181720Z 18003KT 100V200 CAVOK 14/12 Q1018 NOSIG RMK RWY19 12004KT
Conditions at: LTBS (DALAMAN (COMMUNE, TR) observed 1720 UTC 18 March 2019
Temperature: 14.0°C (57°F)
Dewpoint: 12.0°C (54°F) [RH = 88%]
Pressure (altimeter): 30.06 inches Hg (1018.0 mb)
Winds: from the S (180 degrees) at 3 MPH (3 knots; 1.5 m/s)
Visibility: 6 or more miles (10+ km)
Ceiling: ceiling and visibility are OK
Clouds: unknown
Weather: no significant weather observed at this time

Forecast for: LTBS (DALAMAN (COMMUNE, TR)
Text: TAF LTBS 181640Z 1818/1918 VRB02KT CAVOK
Forecast period: 1800 UTC 18 March 2019 to 0700 UTC 19 March 2019
Forecast type: FROM: standard forecast or significant change
Winds: variable direction winds at 2 MPH (2 knots; 1.0 m/s)
Visibility: 6 or more miles 10+ km)
Ceiling: unknown
Clouds: missing
Weather: NSW  (no significant weather)
Text: BECMG 1907/1909 21012KT SCT030
Forecast period: 0700 to 1500 UTC 19 March 2019
Forecast type: BECOMING: Conditions expected to become as follows by 0900 UTC 19 March 2019
Winds: from the SSW (210 degrees) at 14 MPH (12 knots; 6.2 m/s)
Visibility: 6 or more miles 10+ km)
Ceiling: at least 12,000 feet AGL
Clouds: scattered clouds at 3000 feet AGL
Weather: NSW  (no significant weather)
Text: BECMG 1915/1917 VRB02KT CAVOK
Forecast period: 1500 to 1800 UTC 19 March 2019
Forecast type: BECOMING: Conditions expected to become as follows by 1700 UTC 19 March 2019
Winds: variable direction winds at 2 MPH (2 knots; 1.0 m/s)
Visibility: 6 or more miles 10+ km)
Ceiling: unknown
Clouds: missing
Weather: NSW  (no significant weather)